Meteorología y climatología de Navarra
Datos de la estación - Meteo Navarra

Estación de Bardenas (El Yugo) GN

Altitud 486 m.


Datos desde el 23/05/2020 hasta el 24/05/2020 en horario solar
Los datos son PROVISIONALES

Anterior Página 1 de 1 Siguiente Descargar: Formato para Excel 2000 o superior   Formato csv   Formato para OpenOffice Calc
Fecha Temperatura Humedad relativa Radiación global Insolación Precipitación Vel. viento 10 m Vel. viento 10 m Dir. viento 10 m
ºC % W/m² s l/m² m/s km/h º
23/05/2020 0:00 17.9 81 0.0 0 0.0 3.9 14.1 315
23/05/2020 0:10 17.5 81 0.0 0 0.0 4.6 16.4 308
23/05/2020 0:20 17.3 81 0.0 0 0.0 4.3 15.5 318
23/05/2020 0:30 17.3 81 0.0 0 0.0 3.8 13.6 321
23/05/2020 0:40 17.1 83 0.0 0 0.0 4.7 16.7 311
23/05/2020 0:50 16.9 84 0.0 0 0.0 3.9 14.0 314
23/05/2020 1:00 16.7 85 0.0 0 0.0 5.3 19.1 307
23/05/2020 1:10 16.7 84 0.0 0 0.0 5.3 18.9 310
23/05/2020 1:20 16.7 84 0.0 0 0.0 6.0 21.5 311
23/05/2020 1:30 16.6 84 0.0 0 0.0 5.9 21.1 313
23/05/2020 1:40 16.6 84 0.0 0 0.0 6.0 21.6 311
23/05/2020 1:50 16.5 84 0.0 0 0.0 5.6 20.1 316
23/05/2020 2:00 16.4 84 0.0 0 0.0 5.3 18.9 317
23/05/2020 2:10 16.4 84 0.0 0 0.0 6.3 22.6 314
23/05/2020 2:20 16.2 84 0.0 0 0.0 5.3 18.9 316
23/05/2020 2:30 16.1 85 0.0 0 0.0 6.2 22.2 315
23/05/2020 2:40 16.0 86 0.0 0 0.0 6.1 22.1 314
23/05/2020 2:50 15.9 85 0.0 0 0.0 6.7 24.1 311
23/05/2020 3:00 15.8 85 0.0 0 0.0 6.6 23.9 312
23/05/2020 3:10 15.6 85 0.0 0 0.0 6.7 24.0 315
23/05/2020 3:20 15.5 86 0.0 0 0.0 6.8 24.6 312
23/05/2020 3:30 15.4 86 0.0 0 0.0 6.6 23.8 317
23/05/2020 3:40 15.3 86 0.0 0 0.0 6.5 23.5 312
23/05/2020 3:50 15.2 86 0.0 0 0.0 6.5 23.3 308
23/05/2020 4:00 15.0 87 0.0 0 0.0 6.4 23.1 300
23/05/2020 4:10 15.0 87 0.0 0 0.0 7.2 25.8 300
23/05/2020 4:20 15.0 87 0.0 0 0.0 6.8 24.4 299
23/05/2020 4:30 14.9 87 0.0 0 0.0 6.7 24.2 300
23/05/2020 4:40 14.9 87 0.0 0 0.0 6.5 23.5 305
23/05/2020 4:50 14.9 87 0.0 0 0.0 7.1 25.5 306
23/05/2020 5:00 15.0 86 0.0 0 0.0 6.8 24.6 309
23/05/2020 5:10 15.1 86 11.6 0 0.0 7.5 26.9 312
23/05/2020 5:20 15.2 85 24.3 0 0.0 7.5 26.9 316
23/05/2020 5:30 15.4 84 38.3 0 0.0 7.3 26.2 316
23/05/2020 5:40 15.5 83 49.2 0 0.0 6.8 24.6 316
23/05/2020 5:50 15.5 84 72.7 120 0.0 7.1 25.4 313
23/05/2020 6:00 15.8 82 134.0 514 0.0 7.5 27.1 313
23/05/2020 6:10 15.9 82 125.5 280 0.0 7.3 26.2 313
23/05/2020 6:20 16.2 81 198.6 600 0.0 7.3 26.4 316
23/05/2020 6:30 16.5 79 244.6 600 0.0 7.5 26.9 314
23/05/2020 6:40 16.9 78 283.0 600 0.0 6.9 24.7 314
23/05/2020 6:50 17.2 77 313.9 600 0.0 6.5 23.3 316
23/05/2020 7:00 17.4 76 291.0 550 0.0 6.6 23.9 313
23/05/2020 7:10 17.6 76 360.3 600 0.0 6.9 24.7 319
23/05/2020 7:20 17.7 75 396.0 600 0.0 7.2 25.9 312
23/05/2020 7:30 17.9 74 435.8 600 0.0 7.2 25.9 320
23/05/2020 7:40 18.3 73 467.7 600 0.0 7.1 25.7 322
23/05/2020 7:50 18.5 72 501.2 600 0.0 7.7 27.6 323
23/05/2020 8:00 18.4 72 519.7 600 0.0 7.9 28.3 322
23/05/2020 8:10 18.7 71 540.2 600 0.0 7.3 26.2 323
23/05/2020 8:20 19.1 71 598.2 600 0.0 6.7 24.2 322
23/05/2020 8:30 19.5 69 645.9 600 0.0 7.1 25.5 328
23/05/2020 8:40 19.9 69 655.4 550 0.0 6.9 24.8 318
23/05/2020 8:50 19.7 69 585.5 418 0.0 6.6 23.7 312
23/05/2020 9:00 20.1 67 787.1 596 0.0 6.9 24.7 315
23/05/2020 9:10 20.6 67 802.0 600 0.0 6.1 22.1 316
23/05/2020 9:20 20.7 65 812.0 586 0.0 6.2 22.4 321
23/05/2020 9:30 20.4 66 546.2 496 0.0 6.3 22.8 314
23/05/2020 9:40 20.0 68 501.3 560 0.0 6.4 23.1 316
23/05/2020 9:50 19.8 68 658.5 540 0.0 6.4 23.2 317
23/05/2020 10:00 20.4 65 815.0 600 0.0 6.5 23.2 323
23/05/2020 10:10 20.8 63 794.8 600 0.0 7.3 26.3 322
23/05/2020 10:20 21.1 63 849.0 600 0.0 6.9 24.8 323
23/05/2020 10:30 20.9 63 839.0 600 0.0 7.2 25.8 322
23/05/2020 10:40 21.3 62 832.0 576 0.0 7.2 25.9 331
23/05/2020 10:50 21.3 62 725.7 458 0.0 7.1 25.4 331
23/05/2020 11:00 21.0 63 685.3 382 0.0 6.5 23.4 321
23/05/2020 11:10 21.1 63 625.4 216 0.0 6.7 24.2 323
23/05/2020 11:20 21.3 62 940.0 600 0.0 7.3 26.2 323
23/05/2020 11:30 21.6 60 843.0 590 0.0 6.7 24.1 323
23/05/2020 11:40 21.1 61 720.4 456 0.0 7.0 25.1 325
23/05/2020 11:50 21.2 61 1010.0 600 0.0 7.0 25.2 333
23/05/2020 12:00 21.3 60 969.0 588 0.0 8.5 30.5 341
23/05/2020 12:10 21.0 60 969.0 600 0.0 7.7 27.9 335
23/05/2020 12:20 21.1 58 972.0 600 0.0 8.1 29.2 334
23/05/2020 12:30 20.9 58 974.0 600 0.0 9.3 33.3 344
23/05/2020 12:40 20.9 58 939.0 562 0.0 7.9 28.5 344
23/05/2020 12:50 21.3 57 967.0 600 0.0 8.0 28.7 346
23/05/2020 13:00 21.8 56 960.0 600 0.0 6.5 23.4 340
23/05/2020 13:10 21.7 55 971.0 600 0.0 8.2 29.5 350
23/05/2020 13:20 21.6 55 950.0 600 0.0 7.7 27.8 340
23/05/2020 13:30 21.5 56 911.0 580 0.0 7.6 27.5 345
23/05/2020 13:40 21.5 54 921.0 600 0.0 7.0 25.2 330
23/05/2020 13:50 21.7 53 927.0 600 0.0 6.5 23.4 319
23/05/2020 14:00 21.6 53 849.0 600 0.0 6.6 23.9 333
23/05/2020 14:10 21.6 54 875.0 600 0.0 7.2 26.0 331
23/05/2020 14:20 21.4 54 865.0 600 0.0 7.6 27.3 336
23/05/2020 14:30 21.3 53 830.0 600 0.0 7.2 26.0 337
23/05/2020 14:40 21.3 54 831.0 600 0.0 7.0 25.3 334
23/05/2020 14:50 21.1 54 734.0 564 0.0 7.3 26.2 339
23/05/2020 15:00 21.4 53 756.3 600 0.0 7.0 25.0 336
23/05/2020 15:10 21.1 55 738.0 600 0.0 7.9 28.5 339
23/05/2020 15:20 20.6 56 698.7 600 0.0 8.4 30.3 345
23/05/2020 15:30 20.1 57 670.1 600 0.0 8.9 32.1 345
23/05/2020 15:40 19.5 59 643.5 600 0.0 9.4 33.8 347
23/05/2020 15:50 19.1 59 619.1 600 0.0 9.6 34.6 344
23/05/2020 16:00 19.0 59 592.7 600 0.0 8.6 31.1 337
23/05/2020 16:10 19.2 58 562.5 600 0.0 7.4 26.5 335
23/05/2020 16:20 19.1 58 530.2 600 0.0 8.1 29.1 331
23/05/2020 16:30 18.4 59 497.2 600 0.0 8.9 32.0 338
23/05/2020 16:40 18.5 59 465.0 600 0.0 8.0 28.9 333
23/05/2020 16:50 18.0 61 432.6 600 0.0 8.5 30.5 339
23/05/2020 17:00 17.6 62 401.7 600 0.0 8.4 30.2 338
23/05/2020 17:10 17.6 62 366.7 600 0.0 7.2 25.8 337
23/05/2020 17:20 17.5 62 333.4 600 0.0 7.2 25.9 333
23/05/2020 17:30 17.4 63 303.6 600 0.0 6.0 21.7 331
23/05/2020 17:40 17.2 62 271.5 600 0.0 7.4 26.6 322
23/05/2020 17:50 16.9 63 239.1 600 0.0 7.2 26.0 318
23/05/2020 18:00 16.5 64 209.0 600 0.0 7.9 28.4 316
23/05/2020 18:10 16.0 66 176.6 600 0.0 8.5 30.6 315
23/05/2020 18:20 15.6 67 144.6 600 0.0 8.9 32.1 318
23/05/2020 18:30 15.4 68 115.3 600 0.0 8.4 30.1 322
23/05/2020 18:40 15.2 69 90.8 600 0.0 8.8 31.6 321
23/05/2020 18:50 14.8 70 70.5 600 0.0 8.7 31.3 322
23/05/2020 19:00 14.5 71 51.2 600 0.0 8.2 29.5 321
23/05/2020 19:10 14.2 71 28.7 132 0.0 8.8 31.7 316
23/05/2020 19:20 14.1 71 12.0 0 0.0 8.5 30.7 323
23/05/2020 19:30 13.9 72 0.0 0 0.0 8.1 29.3 322
23/05/2020 19:40 13.7 72 0.0 0 0.0 8.2 29.6 321
23/05/2020 19:50 13.7 72 0.0 0 0.0 8.4 30.1 318
23/05/2020 20:00 13.5 72 0.0 0 0.0 8.6 31.0 317
23/05/2020 20:10 13.5 73 0.0 0 0.0 7.7 27.6 319
23/05/2020 20:20 13.4 73 0.0 0 0.0 7.3 26.4 317
23/05/2020 20:30 13.3 73 0.0 0 0.0 8.4 30.2 315
23/05/2020 20:40 13.2 73 0.0 0 0.0 7.5 27.0 310
23/05/2020 20:50 13.0 74 0.0 0 0.0 7.4 26.6 307
23/05/2020 21:00 12.8 74 0.0 0 0.0 6.6 23.8 304
23/05/2020 21:10 12.6 74 0.0 0 0.0 6.9 24.7 305
23/05/2020 21:20 12.5 73 0.0 0 0.0 7.2 25.8 305
23/05/2020 21:30 12.3 73 0.0 0 0.0 7.0 25.1 307
23/05/2020 21:40 12.3 73 0.0 0 0.0 6.5 23.4 308
23/05/2020 21:50 12.1 73 0.0 0 0.0 6.5 23.4 304
23/05/2020 22:00 12.0 73 0.0 0 0.0 6.8 24.3 302
23/05/2020 22:10 11.9 73 0.0 0 0.0 7.0 25.3 299
23/05/2020 22:20 11.8 72 0.0 0 0.0 6.7 24.2 298
23/05/2020 22:30 11.8 72 0.0 0 0.0 6.7 24.2 299
23/05/2020 22:40 11.7 72 0.0 0 0.0 6.7 24.1 298
23/05/2020 22:50 11.7 71 0.0 0 0.0 7.2 25.9 302
23/05/2020 23:00 11.6 71 0.0 0 0.0 7.0 25.3 303
23/05/2020 23:10 11.6 71 0.0 0 0.0 6.7 24.1 303
23/05/2020 23:20 11.6 71 0.0 0 0.0 6.7 24.2 304
23/05/2020 23:30 11.6 72 0.0 0 0.0 6.7 24.2 306
23/05/2020 23:40 11.6 72 0.0 0 0.0 6.8 24.3 306
23/05/2020 23:50 11.6 72 0.0 0 0.0 6.4 22.9 301
Anterior Página 1 de 1 Siguiente

NOTA: Tipo de datos según el color:
   - Valores diarios o 10 minutos correctos
   - Valores diarios calculados a partir de un número de datos 10 minutos menor que 144 y mayor que 120, o de un número de datos semihorarios menor que 48 y mayor que 40 (caso de las estaciones de INTIA y del Ministerio)
   - Valores diez minutos estimados


Contacto        Enlaces        Aviso legal